Heerenveen, Netherlands
Current Conditions -  °F | °C
As of 9:55 PM on Thursday 20 Nov 2014 (Local Time) from EHLW Reporting Station
Haze Haze  
Wind Chill: 37°   Ceiling: 1700
Heat Index: 41°   Visibility: 4mi
Dew Point: 37°   Wind: 6mph
Humidity: 87%   Direction: 130°SE
Pressure: 30.33"   Gusts: NA
Location:  52.96°N, 5.92°E
Report Text: EHLW 202055Z AUTO 13005KT 6000 BR OVC017 05/03 Q1027 WHT
Loading
Personal Weather Stations






























Interactive Weather Map New forecast layout! Learn more

10-Day Weather Forecast

Advertisements
Track Severe Weather on mobile